createdAt,value
2023-02-14T00:02:03.400Z,102477.69
2023-02-14T00:04:38.429Z,102475.84
2023-02-14T00:07:05.710Z,102468.63
2023-02-14T00:09:32.916Z,102474.59
2023-02-14T00:11:59.585Z,102470.44
2023-02-14T00:14:50.045Z,102460.94
2023-02-14T00:17:19.897Z,102462.81
2023-02-14T00:19:46.615Z,102476.50
2023-02-14T00:22:13.155Z,102474.13
2023-02-14T00:24:41.975Z,102470.50
2023-02-14T00:27:08.724Z,102467.09
2023-02-14T00:29:41.038Z,102471.97
2023-02-14T00:32:07.531Z,102470.00
2023-02-14T00:34:36.376Z,102470.31
2023-02-14T00:37:03.812Z,102468.44
2023-02-14T00:39:33.306Z,102461.94
2023-02-14T00:41:59.719Z,102464.81
2023-02-14T00:44:30.897Z,102463.47
2023-02-14T00:46:57.507Z,102461.03
2023-02-14T00:49:23.881Z,102465.22
2023-02-14T00:51:50.582Z,102467.28
2023-02-14T00:54:17.195Z,102460.31
2023-02-14T00:56:45.916Z,102464.38
2023-02-14T00:59:14.734Z,102461.88
2023-02-14T01:01:41.200Z,102456.09
2023-02-14T01:04:18.290Z,102453.97
2023-02-14T01:06:44.832Z,102452.78
2023-02-14T01:09:11.283Z,102458.97
2023-02-14T01:11:38.676Z,102466.84
2023-02-14T01:14:06.564Z,102468.97
2023-02-14T01:16:33.315Z,102471.16
2023-02-14T01:19:00.974Z,102480.69
2023-02-14T01:21:38.698Z,102483.97
2023-02-14T01:24:08.677Z,102482.47
2023-02-14T01:26:36.226Z,102484.81
2023-02-14T01:29:06.798Z,102483.34
2023-02-14T01:31:35.792Z,102475.66
2023-02-14T01:34:03.294Z,102479.66
2023-02-14T01:36:51.318Z,102478.19
2023-02-14T01:39:18.669Z,102479.41
2023-02-14T01:41:56.048Z,102481.22
2023-02-14T01:44:28.053Z,102483.53
2023-02-14T01:46:56.504Z,102484.81
2023-02-14T01:49:34.976Z,102489.50
2023-02-14T01:52:10.163Z,102484.44
2023-02-14T01:55:08.560Z,102488.31
2023-02-14T01:57:49.386Z,102488.47
2023-02-14T02:00:35.723Z,102488.47
2023-02-14T02:03:10.144Z,102486.13
2023-02-14T02:05:51.709Z,102492.75
2023-02-14T02:08:18.248Z,102491.88
2023-02-14T02:10:44.930Z,102497.22
2023-02-14T02:13:21.982Z,102498.44
2023-02-14T02:16:08.196Z,102497.88
2023-02-14T02:18:49.826Z,102498.06
2023-02-14T02:21:31.624Z,102498.91
2023-02-14T02:24:09.350Z,102493.69
2023-02-14T02:27:12.916Z,102504.72
2023-02-14T02:29:57.466Z,102497.56
2023-02-14T02:32:45.661Z,102499.69
2023-02-14T02:35:46.217Z,102497.00
2023-02-14T02:38:36.664Z,102493.59
2023-02-14T02:41:23.966Z,102496.28
2023-02-14T02:44:16.873Z,102489.91
2023-02-14T02:46:55.829Z,102487.09
2023-02-14T02:50:11.967Z,102490.09
2023-02-14T02:53:13.947Z,102488.84
2023-02-14T02:56:01.787Z,102492.72
2023-02-14T02:58:57.632Z,102486.91
2023-02-14T03:01:30.104Z,102489.72
2023-02-14T03:04:23.759Z,102489.53
2023-02-14T03:06:58.903Z,102491.13
2023-02-14T03:09:28.389Z,102488.31
2023-02-14T03:12:10.059Z,102488.53
2023-02-14T03:14:52.157Z,102487.78
2023-02-14T03:17:29.608Z,102491.13
2023-02-14T03:20:36.956Z,102500.50
2023-02-14T03:23:17.073Z,102490.25
2023-02-14T03:25:52.848Z,102496.78
2023-02-14T03:28:37.979Z,102488.03
2023-02-14T03:31:15.672Z,102494.28
2023-02-14T03:33:59.154Z,102496.81
2023-02-14T03:36:32.858Z,102495.16
2023-02-14T03:39:05.407Z,102495.94
2023-02-14T03:41:40.861Z,102492.94
2023-02-14T03:44:11.402Z,102492.06
2023-02-14T03:46:53.178Z,102488.38
2023-02-14T03:49:28.194Z,102494.56
2023-02-14T03:51:57.282Z,102493.97
2023-02-14T03:54:33.164Z,102496.78
2023-02-14T03:57:14.932Z,102490.34
2023-02-14T03:59:43.681Z,102489.47
2023-02-14T04:02:26.985Z,102495.91
2023-02-14T04:04:56.550Z,102493.91
2023-02-14T04:07:24.034Z,102484.59
2023-02-14T04:10:16.670Z,102496.72
2023-02-14T04:12:47.223Z,102491.38
2023-02-14T04:15:16.708Z,102498.81
2023-02-14T04:18:04.966Z,102503.75
2023-02-14T04:20:31.580Z,102501.03
2023-02-14T04:22:58.199Z,102505.97
2023-02-14T04:25:25.472Z,102506.91
2023-02-14T04:27:52.003Z,102510.75
2023-02-14T04:30:20.802Z,102517.09
2023-02-14T04:32:47.674Z,102501.16
2023-02-14T04:35:17.530Z,102495.81
2023-02-14T04:37:47.886Z,102498.38
2023-02-14T04:40:19.766Z,102490.81
2023-02-14T04:42:49.434Z,102496.28
2023-02-14T04:45:22.598Z,102500.81
2023-02-14T04:47:51.456Z,102496.09
2023-02-14T04:50:17.972Z,102499.59
2023-02-14T04:52:46.737Z,102490.59
2023-02-14T04:55:13.445Z,102503.00
2023-02-14T04:57:40.213Z,102501.44
2023-02-14T05:00:08.198Z,102503.09
2023-02-14T05:02:37.391Z,102485.63
2023-02-14T05:05:04.238Z,102494.84
2023-02-14T05:07:30.868Z,102495.97
2023-02-14T05:10:00.263Z,102494.41
2023-02-14T05:12:27.253Z,102487.34
2023-02-14T05:14:53.802Z,102483.75
2023-02-14T05:17:20.446Z,102487.44
2023-02-14T05:19:49.572Z,102479.84
2023-02-14T05:22:23.066Z,102480.94
2023-02-14T05:25:07.899Z,102484.63
2023-02-14T05:27:42.905Z,102483.28
2023-02-14T05:30:10.365Z,102483.53
2023-02-14T05:32:37.128Z,102485.50
2023-02-14T05:35:07.054Z,102479.03
2023-02-14T05:37:34.825Z,102481.47
2023-02-14T05:40:01.400Z,102482.09
2023-02-14T05:42:27.885Z,102486.13
2023-02-14T05:44:54.532Z,102495.97
2023-02-14T05:47:33.185Z,102488.38
2023-02-14T05:49:59.951Z,102501.03
2023-02-14T05:52:26.835Z,102494.72
2023-02-14T05:54:58.132Z,102499.47
2023-02-14T05:57:26.854Z,102495.06
2023-02-14T05:59:55.589Z,102500.31
2023-02-14T06:02:24.413Z,102490.78
2023-02-14T06:04:56.841Z,102488.84
2023-02-14T06:07:33.380Z,102489.97
2023-02-14T06:09:59.834Z,102492.66
2023-02-14T06:12:26.311Z,102489.34
2023-02-14T06:14:52.883Z,102499.06
2023-02-14T06:17:26.867Z,102493.56
2023-02-14T06:19:58.288Z,102496.50
2023-02-14T06:22:24.746Z,102499.84
2023-02-14T06:24:51.162Z,102491.16
2023-02-14T06:27:19.808Z,102502.91
2023-02-14T06:29:48.655Z,102510.00
2023-02-14T06:32:15.208Z,102509.63
2023-02-14T06:34:41.815Z,102512.31
2023-02-14T06:37:17.620Z,102517.59
2023-02-14T06:39:53.924Z,102516.94
2023-02-14T06:42:20.583Z,102518.81
2023-02-14T06:44:47.073Z,102517.06
2023-02-14T06:47:13.858Z,102521.16
2023-02-14T06:49:42.867Z,102526.38
2023-02-14T06:52:11.869Z,102524.75
2023-02-14T06:54:38.301Z,102528.09
2023-02-14T06:57:07.012Z,102529.19
2023-02-14T06:59:33.572Z,102531.75
2023-02-14T07:02:00.283Z,102532.34
2023-02-14T07:04:29.951Z,102532.34
2023-02-14T07:06:57.222Z,102532.81
2023-02-14T07:09:24.001Z,102538.13
2023-02-14T07:11:50.730Z,102538.59
2023-02-14T07:14:17.218Z,102531.19
2023-02-14T07:16:44.030Z,102535.75
2023-02-14T07:19:10.456Z,102534.38
2023-02-14T07:21:44.343Z,102527.31
2023-02-14T07:24:10.793Z,102536.16
2023-02-14T07:26:37.367Z,102524.75
2023-02-14T07:29:12.893Z,102523.63
2023-02-14T07:31:42.186Z,102514.94
2023-02-14T07:34:19.918Z,102522.50
2023-02-14T07:36:49.119Z,102519.19
2023-02-14T07:39:27.001Z,102515.84
2023-02-14T07:41:53.701Z,102520.63
2023-02-14T07:44:22.984Z,102513.72
2023-02-14T07:46:52.587Z,102524.03
2023-02-14T07:49:19.071Z,102510.81
2023-02-14T07:51:48.055Z,102510.66
2023-02-14T07:54:14.577Z,102513.94
2023-02-14T07:56:42.430Z,102515.56
2023-02-14T07:59:08.976Z,102509.94
2023-02-14T08:01:35.897Z,102519.16
2023-02-14T08:04:03.247Z,102508.41
2023-02-14T08:06:29.856Z,102515.38
2023-02-14T08:08:56.466Z,102512.47
2023-02-14T08:11:44.349Z,102513.91
2023-02-14T08:14:22.010Z,102503.75
2023-02-14T08:16:50.875Z,102508.41
2023-02-14T08:19:17.504Z,102514.28
2023-02-14T08:21:49.404Z,102511.75
2023-02-14T08:24:21.609Z,102508.53
2023-02-14T08:26:48.366Z,102507.91
2023-02-14T08:29:16.825Z,102508.69
2023-02-14T08:31:43.372Z,102510.81
2023-02-14T08:34:20.227Z,102502.22
2023-02-14T08:36:52.288Z,102503.41
2023-02-14T08:39:21.654Z,102504.34
2023-02-14T08:41:50.654Z,102508.69
2023-02-14T08:44:17.309Z,102512.56
2023-02-14T08:46:46.302Z,102510.75
2023-02-14T08:49:12.892Z,102506.31
2023-02-14T08:51:39.538Z,102506.19
2023-02-14T08:54:06.169Z,102501.25
2023-02-14T08:56:36.518Z,102508.59
2023-02-14T08:59:03.244Z,102513.75
2023-02-14T09:01:30.011Z,102512.88
2023-02-14T09:03:59.565Z,102514.69
2023-02-14T09:06:28.457Z,102510.59
2023-02-14T09:09:02.569Z,102510.59
2023-02-14T09:11:35.131Z,102507.28
2023-02-14T09:14:01.491Z,102512.09
2023-02-14T09:16:28.494Z,102506.88
2023-02-14T09:18:56.744Z,102513.06
2023-02-14T09:21:26.626Z,102510.88
2023-02-14T09:23:53.796Z,102511.38
2023-02-14T09:26:22.482Z,102504.19
2023-02-14T09:28:48.963Z,102502.25
2023-02-14T09:31:21.678Z,102497.84
2023-02-14T09:33:49.843Z,102494.53
2023-02-14T09:36:16.489Z,102504.63
2023-02-14T09:38:46.495Z,102502.63
2023-02-14T09:41:33.420Z,102504.19
2023-02-14T09:44:06.473Z,102494.47
2023-02-14T09:46:42.776Z,102503.50
2023-02-14T09:49:17.878Z,102499.69
2023-02-14T09:51:51.030Z,102490.41
2023-02-14T09:58:13.596Z,102494.63
2023-02-14T10:00:55.875Z,102496.00
2023-02-14T10:03:45.710Z,102487.84
2023-02-14T10:06:15.879Z,102495.09
2023-02-14T10:08:46.631Z,102492.22
2023-02-14T10:11:20.446Z,102486.84
2023-02-14T10:13:59.760Z,102485.63
2023-02-14T10:16:35.126Z,102485.13
2023-02-14T10:19:26.287Z,102479.34
2023-02-14T10:22:13.522Z,102474.56
2023-02-14T10:24:50.909Z,102481.56
2023-02-14T10:27:55.772Z,102474.97
2023-02-14T10:30:27.124Z,102477.09
2023-02-14T10:33:04.512Z,102474.69
2023-02-14T10:35:54.385Z,102474.03
2023-02-14T10:38:23.737Z,102472.47
2023-02-14T10:41:05.941Z,102466.44
2023-02-14T10:43:40.578Z,102457.69
2023-02-14T10:46:35.043Z,102456.72
2023-02-14T10:49:51.124Z,102452.75
2023-02-14T10:52:29.828Z,102446.41
2023-02-14T10:55:00.193Z,102448.97
2023-02-14T10:57:35.316Z,102454.66
2023-02-14T11:00:06.798Z,102443.31
2023-02-14T11:03:10.940Z,102446.50
2023-02-14T11:05:46.932Z,102453.34
2023-02-14T11:08:33.494Z,102452.00
2023-02-14T11:11:40.800Z,102445.25
2023-02-14T11:14:28.846Z,102445.25
2023-02-14T11:16:59.235Z,102451.34
2023-02-14T11:19:30.926Z,102435.91
2023-02-14T11:22:02.826Z,102431.78
2023-02-14T11:24:42.343Z,102425.59
2023-02-14T11:27:11.591Z,102430.09
2023-02-14T11:29:40.836Z,102426.06
2023-02-14T11:32:11.664Z,102421.16
2023-02-14T11:35:11.208Z,102417.22
2023-02-14T11:37:56.324Z,102415.50
2023-02-14T11:40:40.407Z,102409.63
2023-02-14T11:43:15.653Z,102406.63
2023-02-14T11:45:49.177Z,102412.72
2023-02-14T11:48:37.744Z,102408.63
2023-02-14T11:51:14.784Z,102403.47
2023-02-14T11:53:51.965Z,102399.94
2023-02-14T11:56:21.178Z,102389.06
2023-02-14T11:59:06.961Z,102391.00
2023-02-14T12:01:36.390Z,102384.72
2023-02-14T12:04:17.693Z,102383.34
2023-02-14T12:06:45.893Z,102382.53
2023-02-14T12:09:29.455Z,102375.75
2023-02-14T12:12:02.076Z,102380.03
2023-02-14T12:14:36.260Z,102365.66
2023-02-14T12:17:12.901Z,102363.38
2023-02-14T12:19:49.038Z,102367.09
2023-02-14T12:23:10.792Z,102357.34
2023-02-14T12:25:48.504Z,102355.28
2023-02-14T12:28:28.350Z,102346.25
2023-02-14T12:30:55.227Z,102352.44
2023-02-14T12:33:37.372Z,102341.88
2023-02-14T12:36:16.931Z,102346.94
2023-02-14T12:39:01.351Z,102342.88
2023-02-14T12:42:09.014Z,102343.41
2023-02-14T12:44:44.702Z,102335.41
2023-02-14T12:47:27.529Z,102332.25
2023-02-14T12:50:15.629Z,102335.09
2023-02-14T12:53:19.541Z,102332.91
2023-02-14T12:56:17.403Z,102328.19
2023-02-14T12:59:02.310Z,102324.38
2023-02-14T13:02:05.246Z,102329.16
2023-02-14T13:04:46.873Z,102320.84
2023-02-14T13:07:37.764Z,102312.91
2023-02-14T13:10:13.455Z,102309.31
2023-02-14T13:13:02.243Z,102307.72
2023-02-14T13:15:59.686Z,102311.19
2023-02-14T13:18:39.767Z,102309.88
2023-02-14T13:21:10.498Z,102305.13
2023-02-14T13:23:45.084Z,102306.31
2023-02-14T13:26:21.739Z,102307.31
2023-02-14T13:29:04.064Z,102302.63
2023-02-14T13:31:33.882Z,102294.44
2023-02-14T13:34:33.646Z,102296.91
2023-02-14T13:37:03.698Z,102295.28
2023-02-14T13:39:38.792Z,102288.47
2023-02-14T13:42:08.634Z,102290.63
2023-02-14T13:44:52.708Z,102277.00
2023-02-14T13:47:26.365Z,102276.56
2023-02-14T13:50:03.407Z,102284.69
2023-02-14T13:52:49.050Z,102279.81
2023-02-14T13:55:32.422Z,102273.94
2023-02-14T13:58:18.311Z,102272.28
2023-02-14T14:00:49.858Z,102277.50
2023-02-14T14:03:28.937Z,102274.16
2023-02-14T14:06:03.559Z,102267.22
2023-02-14T14:08:31.511Z,102271.53
2023-02-14T14:11:02.805Z,102283.34
2023-02-14T14:13:45.150Z,102265.50
2023-02-14T14:16:28.652Z,102270.88
2023-02-14T14:19:19.929Z,102258.69
2023-02-14T14:22:09.307Z,102262.50
2023-02-14T14:24:36.863Z,102259.66
2023-02-14T14:27:46.574Z,102261.41
2023-02-14T14:30:29.230Z,102245.19
2023-02-14T14:33:13.973Z,102252.75
2023-02-14T14:35:51.651Z,102246.34
2023-02-14T14:38:23.974Z,102247.34
2023-02-14T14:40:50.846Z,102239.78
2023-02-14T14:43:39.459Z,102232.44
2023-02-14T14:46:15.828Z,102231.78
2023-02-14T14:48:51.480Z,102240.22
2023-02-14T14:51:29.941Z,102223.66
2023-02-14T14:54:04.731Z,102223.13
2023-02-14T14:56:36.702Z,102218.03
2023-02-14T14:59:54.017Z,102217.81
2023-02-14T15:02:23.899Z,102212.59
2023-02-14T15:04:50.530Z,102208.84
2023-02-14T15:07:30.273Z,102215.66
2023-02-14T15:09:59.012Z,102202.31
2023-02-14T15:12:46.045Z,102207.84
2023-02-14T15:15:17.034Z,102202.97
2023-02-14T15:17:49.130Z,102207.94
2023-02-14T15:20:29.292Z,102208.34
2023-02-14T15:22:59.662Z,102215.13
2023-02-14T15:25:34.011Z,102210.25
2023-02-14T15:28:03.480Z,102211.41
2023-02-14T15:30:33.999Z,102204.50
2023-02-14T15:33:03.471Z,102204.78
2023-02-14T15:35:37.382Z,102207.81
2023-02-14T15:38:06.944Z,102206.38
2023-02-14T15:40:35.707Z,102203.91
2023-02-14T15:43:32.067Z,102205.34
2023-02-14T15:46:15.281Z,102200.38
2023-02-14T15:48:46.038Z,102207.69
2023-02-14T15:51:21.866Z,102209.72
2023-02-14T15:53:59.608Z,102202.03
2023-02-14T15:56:34.960Z,102214.00
2023-02-14T15:59:07.730Z,102207.19
2023-02-14T16:01:56.091Z,102205.53
2023-02-14T16:04:34.065Z,102208.94
2023-02-14T16:07:25.854Z,102220.13
2023-02-14T16:10:18.213Z,102212.41
2023-02-14T16:12:57.600Z,102207.28
2023-02-14T16:15:38.933Z,102207.59
2023-02-14T16:18:19.002Z,102209.72
2023-02-14T16:20:48.897Z,102201.03
2023-02-14T16:23:21.470Z,102200.56
2023-02-14T16:25:57.320Z,102198.47
2023-02-14T16:28:30.816Z,102206.16
2023-02-14T16:31:00.208Z,102204.91
2023-02-14T16:33:30.326Z,102201.72
2023-02-14T16:36:06.473Z,102203.94
2023-02-14T16:38:41.413Z,102199.09
2023-02-14T16:41:20.888Z,102209.72
2023-02-14T16:43:50.360Z,102210.06
2023-02-14T16:46:22.604Z,102209.47
2023-02-14T16:48:52.659Z,102211.84
2023-02-14T16:51:27.197Z,102209.00
2023-02-14T16:53:58.543Z,102210.16
2023-02-14T16:56:47.840Z,102210.84
2023-02-14T16:59:14.421Z,102212.41
2023-02-14T17:01:43.397Z,102224.63
2023-02-14T17:04:12.978Z,102216.19
2023-02-14T17:06:43.706Z,102212.31
2023-02-14T17:09:15.577Z,102217.75
2023-02-14T17:11:48.314Z,102224.38
2023-02-14T17:14:21.326Z,102220.19
2023-02-14T17:16:48.007Z,102233.56
2023-02-14T17:19:21.219Z,102227.94
2023-02-14T17:21:48.596Z,102228.00
2023-02-14T17:24:15.882Z,102230.00
2023-02-14T17:26:45.516Z,102227.75
2023-02-14T17:29:14.218Z,102230.19
2023-02-14T17:31:46.175Z,102237.19
2023-02-14T17:34:16.124Z,102228.28
2023-02-14T17:36:44.936Z,102234.75
2023-02-14T17:39:11.563Z,102234.00
2023-02-14T17:41:43.366Z,102238.00
2023-02-14T17:44:10.164Z,102238.44
2023-02-14T17:46:41.576Z,102243.97
2023-02-14T17:49:09.947Z,102241.19
2023-02-14T17:51:44.121Z,102242.84
2023-02-14T17:54:10.830Z,102241.38
2023-02-14T17:56:57.560Z,102237.63
2023-02-14T17:59:24.472Z,102239.63
2023-02-14T18:01:51.031Z,102233.81
2023-02-14T18:04:30.135Z,102238.06
2023-02-14T18:06:59.462Z,102230.94
2023-02-14T18:09:32.367Z,102229.13
2023-02-14T18:12:04.534Z,102230.00
2023-02-14T18:14:31.382Z,102226.56
2023-02-14T18:17:00.655Z,102230.09
2023-02-14T18:19:28.305Z,102233.56
2023-02-14T18:21:54.862Z,102224.81
2023-02-14T18:24:32.787Z,102218.38
2023-02-14T18:26:59.313Z,102225.56
2023-02-14T18:29:28.314Z,102215.63
2023-02-14T18:31:59.623Z,102209.44
2023-02-14T18:34:30.203Z,102211.44
2023-02-14T18:36:58.344Z,102209.19
2023-02-14T18:39:27.308Z,102203.13
2023-02-14T18:41:53.766Z,102208.31
2023-02-14T18:44:25.128Z,102193.22
2023-02-14T18:46:51.734Z,102196.72
2023-02-14T18:49:23.954Z,102201.22
2023-02-14T18:51:57.331Z,102201.22
2023-02-14T18:54:23.847Z,102195.91
2023-02-14T18:57:05.076Z,102188.56
2023-02-14T18:59:34.093Z,102186.72
2023-02-14T19:02:00.856Z,102195.50
2023-02-14T19:04:27.458Z,102195.50
2023-02-14T19:06:53.972Z,102196.53
2023-02-14T19:09:29.469Z,102196.63
2023-02-14T19:12:00.206Z,102190.22
2023-02-14T19:14:26.885Z,102187.69
2023-02-14T19:16:55.736Z,102188.91
2023-02-14T19:19:24.776Z,102186.47
2023-02-14T19:21:52.129Z,102180.41
2023-02-14T19:24:25.730Z,102190.22
2023-02-14T19:26:55.104Z,102178.66
2023-02-14T19:29:21.958Z,102190.72
2023-02-14T19:31:51.383Z,102188.09
2023-02-14T19:34:33.355Z,102191.84
2023-02-14T19:37:01.270Z,102179.72
2023-02-14T19:39:31.332Z,102179.34
2023-02-14T19:41:58.925Z,102183.03
2023-02-14T19:44:31.345Z,102182.16
2023-02-14T19:47:09.813Z,102169.66
2023-02-14T19:49:44.717Z,102173.97
2023-02-14T19:52:25.812Z,102170.16
2023-02-14T19:54:53.177Z,102171.84
2023-02-14T19:57:22.340Z,102171.09
2023-02-14T19:59:53.289Z,102163.66
2023-02-14T20:02:23.589Z,102168.41
2023-02-14T20:04:50.192Z,102167.47
2023-02-14T20:07:19.046Z,102167.28
2023-02-14T20:09:45.585Z,102157.41
2023-02-14T20:12:16.931Z,102155.84
2023-02-14T20:14:51.139Z,102149.53
2023-02-14T20:17:32.004Z,102148.84
2023-02-14T20:19:58.927Z,102148.66
2023-02-14T20:22:25.696Z,102153.84
2023-02-14T20:25:02.271Z,102143.47
2023-02-14T20:27:33.529Z,102141.84
2023-02-14T20:30:00.217Z,102149.97
2023-02-14T20:32:29.774Z,102144.53
2023-02-14T20:34:57.882Z,102137.41
2023-02-14T20:37:27.664Z,102131.59
2023-02-14T20:39:54.308Z,102133.06
2023-02-14T20:42:24.233Z,102134.09
2023-02-14T20:44:50.709Z,102125.28
2023-02-14T20:47:17.550Z,102132.28
2023-02-14T20:49:44.804Z,102130.38
2023-02-14T20:52:13.608Z,102123.16
2023-02-14T20:54:40.219Z,102125.78
2023-02-14T20:57:06.890Z,102128.28
2023-02-14T20:59:33.570Z,102127.78
2023-02-14T21:02:00.516Z,102135.91
2023-02-14T21:04:30.548Z,102124.31
2023-02-14T21:07:07.660Z,102118.16
2023-02-14T21:09:34.711Z,102113.81
2023-02-14T21:12:04.719Z,102112.88
2023-02-14T21:14:31.143Z,102115.66
2023-02-14T21:16:58.963Z,102116.53
2023-02-14T21:19:28.601Z,102115.56
2023-02-14T21:21:58.065Z,102107.50
2023-02-14T21:24:24.761Z,102112.16
2023-02-14T21:26:51.310Z,102107.06
2023-02-14T21:29:19.684Z,102104.28
2023-02-14T21:31:46.455Z,102116.06
2023-02-14T21:34:15.160Z,102107.41
2023-02-14T21:36:42.316Z,102108.97
2023-02-14T21:39:11.732Z,102100.13
2023-02-14T21:41:38.327Z,102099.25
2023-02-14T21:44:07.741Z,102105.41
2023-02-14T21:46:38.541Z,102104.53
2023-02-14T21:49:24.458Z,102105.59
2023-02-14T21:51:56.139Z,102101.16
2023-02-14T21:54:25.592Z,102099.25
2023-02-14T21:56:52.233Z,102100.47
2023-02-14T21:59:21.411Z,102088.16
2023-02-14T22:01:49.813Z,102093.13
2023-02-14T22:04:18.904Z,102090.06
2023-02-14T22:06:45.368Z,102085.81
2023-02-14T22:09:17.508Z,102082.19
2023-02-14T22:11:45.377Z,102076.81
2023-02-14T22:14:17.482Z,102082.97
2023-02-14T22:16:56.054Z,102080.38
2023-02-14T22:19:22.847Z,102079.50
2023-02-14T22:21:49.298Z,102087.03
2023-02-14T22:24:15.951Z,102076.47
2023-02-14T22:26:47.446Z,102078.03
2023-02-14T22:29:14.015Z,102072.59
2023-02-14T22:31:42.949Z,102071.72
2023-02-14T22:34:12.149Z,102078.81
2023-02-14T22:36:48.669Z,102076.03
2023-02-14T22:39:25.432Z,102073.09
2023-02-14T22:41:54.877Z,102069.28
2023-02-14T22:44:24.279Z,102072.59
2023-02-14T22:46:50.690Z,102060.34
2023-02-14T22:49:17.566Z,102059.41
2023-02-14T22:51:46.446Z,102069.22
2023-02-14T22:54:16.276Z,102056.78
2023-02-14T22:56:51.670Z,102052.66
2023-02-14T22:59:21.691Z,102054.91
2023-02-14T23:01:49.710Z,102061.72
2023-02-14T23:04:22.718Z,102058.47
2023-02-14T23:06:52.751Z,102052.97
2023-02-14T23:09:22.542Z,102054.03
2023-02-14T23:11:52.435Z,102054.97
2023-02-14T23:14:38.127Z,102052.91
2023-02-14T23:17:14.609Z,102053.84
2023-02-14T23:20:00.518Z,102056.72
2023-02-14T23:22:42.070Z,102051.41
2023-02-14T23:25:11.630Z,102050.41
2023-02-14T23:27:47.321Z,102055.91
2023-02-14T23:30:16.958Z,102060.78
2023-02-14T23:32:51.061Z,102057.59
2023-02-14T23:35:17.720Z,102064.34
2023-02-14T23:37:46.104Z,102066.84
2023-02-14T23:40:15.392Z,102071.28
2023-02-14T23:42:44.245Z,102071.53
2023-02-14T23:45:39.560Z,102074.31
2023-02-14T23:48:06.245Z,102065.22
2023-02-14T23:50:32.706Z,102066.41
2023-02-14T23:52:59.802Z,102067.91
2023-02-14T23:55:28.662Z,102069.63
2023-02-14T23:57:55.273Z,102065.97
